sensor_id;sensor_type;location;lat;lon;timestamp;temperature;humidity
73112;HTU21D;61301;51.956;5.876;2023-04-25T00:01:40;12.31;60.14
73112;HTU21D;61301;51.956;5.876;2023-04-25T00:04:07;12.36;60.06
73112;HTU21D;61301;51.956;5.876;2023-04-25T00:06:34;12.12;60.02
73112;HTU21D;61301;51.956;5.876;2023-04-25T00:09:05;11.94;60.41
73112;HTU21D;61301;51.956;5.876;2023-04-25T00:11:35;11.96;60.45
73112;HTU21D;61301;51.956;5.876;2023-04-25T00:14:02;11.72;60.67
73112;HTU21D;61301;51.956;5.876;2023-04-25T00:16:29;11.55;61.22
73112;HTU21D;61301;51.956;5.876;2023-04-25T00:18:59;11.47;61.26
73112;HTU21D;61301;51.956;5.876;2023-04-25T00:21:25;11.55;61.60
73112;HTU21D;61301;51.956;5.876;2023-04-25T00:23:52;11.56;61.44
73112;HTU21D;61301;51.956;5.876;2023-04-25T00:26:18;11.59;61.42
73112;HTU21D;61301;51.956;5.876;2023-04-25T00:28:45;11.59;61.50
73112;HTU21D;61301;51.956;5.876;2023-04-25T00:31:11;11.56;61.14
73112;HTU21D;61301;51.956;5.876;2023-04-25T00:33:37;11.59;61.30
73112;HTU21D;61301;51.956;5.876;2023-04-25T00:36:03;11.56;61.29
73112;HTU21D;61301;51.956;5.876;2023-04-25T00:38:29;11.53;61.11
73112;HTU21D;61301;51.956;5.876;2023-04-25T00:40:55;11.49;61.17
73112;HTU21D;61301;51.956;5.876;2023-04-25T00:43:21;11.53;61.15
73112;HTU21D;61301;51.956;5.876;2023-04-25T00:45:47;11.61;61.05
73112;HTU21D;61301;51.956;5.876;2023-04-25T00:48:17;11.61;61.05
73112;HTU21D;61301;51.956;5.876;2023-04-25T00:50:53;11.61;61.23
73112;HTU21D;61301;51.956;5.876;2023-04-25T00:53:26;11.54;61.25
73112;HTU21D;61301;51.956;5.876;2023-04-25T00:55:52;11.56;61.12
73112;HTU21D;61301;51.956;5.876;2023-04-25T00:58:20;11.48;61.10
73112;HTU21D;61301;51.956;5.876;2023-04-25T01:00:48;11.33;61.37
73112;HTU21D;61301;51.956;5.876;2023-04-25T01:03:15;11.15;61.73
73112;HTU21D;61301;51.956;5.876;2023-04-25T01:05:42;11.04;62.01
73112;HTU21D;61301;51.956;5.876;2023-04-25T01:08:09;10.98;62.44
73112;HTU21D;61301;51.956;5.876;2023-04-25T01:10:36;10.82;62.46
73112;HTU21D;61301;51.956;5.876;2023-04-25T01:13:02;10.63;63.21
73112;HTU21D;61301;51.956;5.876;2023-04-25T01:15:29;10.68;63.27
73112;HTU21D;61301;51.956;5.876;2023-04-25T01:17:55;10.81;63.46
73112;HTU21D;61301;51.956;5.876;2023-04-25T01:20:22;10.92;62.88
73112;HTU21D;61301;51.956;5.876;2023-04-25T01:22:50;10.78;62.92
73112;HTU21D;61301;51.956;5.876;2023-04-25T01:25:16;10.78;63.02
73112;HTU21D;61301;51.956;5.876;2023-04-25T01:27:43;10.64;63.19
73112;HTU21D;61301;51.956;5.876;2023-04-25T01:30:09;10.54;63.51
73112;HTU21D;61301;51.956;5.876;2023-04-25T01:32:36;10.70;63.44
73112;HTU21D;61301;51.956;5.876;2023-04-25T01:35:11;10.83;63.50
73112;HTU21D;61301;51.956;5.876;2023-04-25T01:37:40;10.85;63.29
73112;HTU21D;61301;51.956;5.876;2023-04-25T01:40:08;10.92;62.99
73112;HTU21D;61301;51.956;5.876;2023-04-25T01:42:37;10.98;62.88
73112;HTU21D;61301;51.956;5.876;2023-04-25T01:45:03;11.24;62.53
73112;HTU21D;61301;51.956;5.876;2023-04-25T01:47:29;11.34;61.67
73112;HTU21D;61301;51.956;5.876;2023-04-25T01:49:56;11.31;61.42
73112;HTU21D;61301;51.956;5.876;2023-04-25T01:52:22;11.29;61.33
73112;HTU21D;61301;51.956;5.876;2023-04-25T01:54:49;11.29;61.33
73112;HTU21D;61301;51.956;5.876;2023-04-25T01:57:17;11.30;61.33
73112;HTU21D;61301;51.956;5.876;2023-04-25T01:59:44;11.24;60.93
73112;HTU21D;61301;51.956;5.876;2023-04-25T02:02:39;11.04;61.12
73112;HTU21D;61301;51.956;5.876;2023-04-25T02:05:14;11.08;61.14
73112;HTU21D;61301;51.956;5.876;2023-04-25T02:07:42;11.03;61.25
73112;HTU21D;61301;51.956;5.876;2023-04-25T02:10:09;11.09;61.26
73112;HTU21D;61301;51.956;5.876;2023-04-25T02:12:41;11.08;61.12
73112;HTU21D;61301;51.956;5.876;2023-04-25T02:15:21;11.16;61.30
73112;HTU21D;61301;51.956;5.876;2023-04-25T02:17:55;11.07;61.19
73112;HTU21D;61301;51.956;5.876;2023-04-25T02:20:22;10.94;61.18
73112;HTU21D;61301;51.956;5.876;2023-04-25T02:22:48;10.87;61.33
73112;HTU21D;61301;51.956;5.876;2023-04-25T02:25:14;10.86;61.39
73112;HTU21D;61301;51.956;5.876;2023-04-25T02:27:42;10.99;61.20
73112;HTU21D;61301;51.956;5.876;2023-04-25T02:30:09;11.13;61.15
73112;HTU21D;61301;51.956;5.876;2023-04-25T02:32:35;11.22;61.15
73112;HTU21D;61301;51.956;5.876;2023-04-25T02:35:02;11.26;60.49
73112;HTU21D;61301;51.956;5.876;2023-04-25T02:37:33;11.16;60.33
73112;HTU21D;61301;51.956;5.876;2023-04-25T02:40:00;11.12;60.65
73112;HTU21D;61301;51.956;5.876;2023-04-25T02:42:27;11.19;60.53
73112;HTU21D;61301;51.956;5.876;2023-04-25T02:44:53;11.22;60.70
73112;HTU21D;61301;51.956;5.876;2023-04-25T02:47:20;11.26;60.32
73112;HTU21D;61301;51.956;5.876;2023-04-25T02:49:46;11.20;60.35
73112;HTU21D;61301;51.956;5.876;2023-04-25T02:52:12;11.25;59.99
73112;HTU21D;61301;51.956;5.876;2023-04-25T02:54:39;11.15;59.83
73112;HTU21D;61301;51.956;5.876;2023-04-25T02:57:06;11.04;59.42
73112;HTU21D;61301;51.956;5.876;2023-04-25T02:59:36;10.97;59.64
73112;HTU21D;61301;51.956;5.876;2023-04-25T03:02:02;11.02;59.72
73112;HTU21D;61301;51.956;5.876;2023-04-25T03:04:28;11.02;59.66
73112;HTU21D;61301;51.956;5.876;2023-04-25T03:06:54;10.95;59.56
73112;HTU21D;61301;51.956;5.876;2023-04-25T03:09:21;11.02;59.64
73112;HTU21D;61301;51.956;5.876;2023-04-25T03:11:51;10.93;59.00
73112;HTU21D;61301;51.956;5.876;2023-04-25T03:14:17;10.94;59.62
73112;HTU21D;61301;51.956;5.876;2023-04-25T03:16:44;10.89;59.60
73112;HTU21D;61301;51.956;5.876;2023-04-25T03:19:10;10.86;59.77
73112;HTU21D;61301;51.956;5.876;2023-04-25T03:21:37;10.85;59.10
73112;HTU21D;61301;51.956;5.876;2023-04-25T03:24:05;10.71;59.34
73112;HTU21D;61301;51.956;5.876;2023-04-25T03:26:31;10.58;59.79
73112;HTU21D;61301;51.956;5.876;2023-04-25T03:28:57;10.67;59.63
73112;HTU21D;61301;51.956;5.876;2023-04-25T03:31:23;10.49;59.38
73112;HTU21D;61301;51.956;5.876;2023-04-25T03:33:49;10.33;59.70
73112;HTU21D;61301;51.956;5.876;2023-04-25T03:36:16;10.29;59.84
73112;HTU21D;61301;51.956;5.876;2023-04-25T03:38:42;10.21;59.71
73112;HTU21D;61301;51.956;5.876;2023-04-25T03:41:10;10.00;60.08
73112;HTU21D;61301;51.956;5.876;2023-04-25T03:43:45;9.96;60.32
73112;HTU21D;61301;51.956;5.876;2023-04-25T03:46:12;9.99;60.59
73112;HTU21D;61301;51.956;5.876;2023-04-25T03:48:40;10.07;60.51
73112;HTU21D;61301;51.956;5.876;2023-04-25T03:51:08;10.01;60.45
73112;HTU21D;61301;51.956;5.876;2023-04-25T03:53:37;9.96;60.35
73112;HTU21D;61301;51.956;5.876;2023-04-25T03:56:32;9.99;60.28
73112;HTU21D;61301;51.956;5.876;2023-04-25T03:59:07;10.04;60.65
73112;HTU21D;61301;51.956;5.876;2023-04-25T04:01:34;10.06;60.38
73112;HTU21D;61301;51.956;5.876;2023-04-25T04:04:01;10.07;60.51
73112;HTU21D;61301;51.956;5.876;2023-04-25T04:06:28;10.10;60.41
73112;HTU21D;61301;51.956;5.876;2023-04-25T04:09:10;10.19;61.26
73112;HTU21D;61301;51.956;5.876;2023-04-25T04:11:39;10.25;61.18
73112;HTU21D;61301;51.956;5.876;2023-04-25T04:14:06;10.19;60.36
73112;HTU21D;61301;51.956;5.876;2023-04-25T04:16:33;10.14;60.50
73112;HTU21D;61301;51.956;5.876;2023-04-25T04:18:59;10.25;60.76
73112;HTU21D;61301;51.956;5.876;2023-04-25T04:21:25;10.31;60.59
73112;HTU21D;61301;51.956;5.876;2023-04-25T04:23:53;10.26;60.31
73112;HTU21D;61301;51.956;5.876;2023-04-25T04:26:21;10.24;60.37
73112;HTU21D;61301;51.956;5.876;2023-04-25T04:29:02;10.24;60.67
73112;HTU21D;61301;51.956;5.876;2023-04-25T04:31:39;10.12;59.79
73112;HTU21D;61301;51.956;5.876;2023-04-25T04:34:06;10.01;60.44
73112;HTU21D;61301;51.956;5.876;2023-04-25T04:36:33;10.11;60.25
73112;HTU21D;61301;51.956;5.876;2023-04-25T04:38:59;10.14;60.36
73112;HTU21D;61301;51.956;5.876;2023-04-25T04:41:36;10.19;60.56
73112;HTU21D;61301;51.956;5.876;2023-04-25T04:44:09;10.31;60.85
73112;HTU21D;61301;51.956;5.876;2023-04-25T04:47:07;10.38;60.52
73112;HTU21D;61301;51.956;5.876;2023-04-25T04:49:51;10.23;59.99
73112;HTU21D;61301;51.956;5.876;2023-04-25T04:52:30;10.18;60.13
73112;HTU21D;61301;51.956;5.876;2023-04-25T04:55:22;9.98;60.51
73112;HTU21D;61301;51.956;5.876;2023-04-25T04:58:06;10.04;60.42
73112;HTU21D;61301;51.956;5.876;2023-04-25T05:00:44;10.13;60.49
73112;HTU21D;61301;51.956;5.876;2023-04-25T05:03:10;10.16;60.17
73112;HTU21D;61301;51.956;5.876;2023-04-25T05:06:00;10.03;59.83
73112;HTU21D;61301;51.956;5.876;2023-04-25T05:08:47;10.04;60.31
73112;HTU21D;61301;51.956;5.876;2023-04-25T05:11:26;10.20;60.54
73112;HTU21D;61301;51.956;5.876;2023-04-25T05:14:13;10.44;60.25
73112;HTU21D;61301;51.956;5.876;2023-04-25T05:17:02;10.55;59.93
73112;HTU21D;61301;51.956;5.876;2023-04-25T05:19:45;10.72;60.17
73112;HTU21D;61301;51.956;5.876;2023-04-25T05:22:33;10.92;59.88
73112;HTU21D;61301;51.956;5.876;2023-04-25T05:25:09;11.10;59.53
73112;HTU21D;61301;51.956;5.876;2023-04-25T05:27:58;11.25;59.48
73112;HTU21D;61301;51.956;5.876;2023-04-25T05:30:39;11.32;58.90
73112;HTU21D;61301;51.956;5.876;2023-04-25T05:33:13;11.34;58.51
73112;HTU21D;61301;51.956;5.876;2023-04-25T05:35:40;11.37;58.87
73112;HTU21D;61301;51.956;5.876;2023-04-25T05:38:06;11.47;58.91
73112;HTU21D;61301;51.956;5.876;2023-04-25T05:40:55;11.58;59.04
73112;HTU21D;61301;51.956;5.876;2023-04-25T05:43:41;11.68;58.83
73112;HTU21D;61301;51.956;5.876;2023-04-25T05:46:31;11.74;58.38
73112;HTU21D;61301;51.956;5.876;2023-04-25T05:49:16;11.70;58.47
73112;HTU21D;61301;51.956;5.876;2023-04-25T05:52:01;11.77;57.96
73112;HTU21D;61301;51.956;5.876;2023-04-25T05:54:46;11.79;58.12
73112;HTU21D;61301;51.956;5.876;2023-04-25T05:57:26;11.85;57.64
73112;HTU21D;61301;51.956;5.876;2023-04-25T05:59:54;11.87;57.57
73112;HTU21D;61301;51.956;5.876;2023-04-25T06:02:21;11.98;57.82
73112;HTU21D;61301;51.956;5.876;2023-04-25T06:04:52;12.14;57.67
73112;HTU21D;61301;51.956;5.876;2023-04-25T06:07:21;12.18;57.28
73112;HTU21D;61301;51.956;5.876;2023-04-25T06:09:47;12.26;57.22
73112;HTU21D;61301;51.956;5.876;2023-04-25T06:12:14;12.31;57.15
73112;HTU21D;61301;51.956;5.876;2023-04-25T06:14:41;12.40;57.07
73112;HTU21D;61301;51.956;5.876;2023-04-25T06:17:07;12.43;56.72
73112;HTU21D;61301;51.956;5.876;2023-04-25T06:19:35;12.45;56.63
73112;HTU21D;61301;51.956;5.876;2023-04-25T06:22:02;12.40;56.96
73112;HTU21D;61301;51.956;5.876;2023-04-25T06:24:29;12.44;57.04
73112;HTU21D;61301;51.956;5.876;2023-04-25T06:26:56;12.42;56.56
73112;HTU21D;61301;51.956;5.876;2023-04-25T06:29:22;12.42;55.85
73112;HTU21D;61301;51.956;5.876;2023-04-25T06:31:48;12.30;55.73
73112;HTU21D;61301;51.956;5.876;2023-04-25T06:34:15;12.21;56.06
73112;HTU21D;61301;51.956;5.876;2023-04-25T06:36:41;12.21;56.26
73112;HTU21D;61301;51.956;5.876;2023-04-25T06:39:10;12.21;56.29
73112;HTU21D;61301;51.956;5.876;2023-04-25T06:41:36;12.31;56.42
73112;HTU21D;61301;51.956;5.876;2023-04-25T06:44:06;12.44;56.42
73112;HTU21D;61301;51.956;5.876;2023-04-25T06:46:37;12.48;56.36
73112;HTU21D;61301;51.956;5.876;2023-04-25T06:49:04;12.58;56.45
73112;HTU21D;61301;51.956;5.876;2023-04-25T06:51:30;12.64;56.18
73112;HTU21D;61301;51.956;5.876;2023-04-25T06:53:57;12.70;55.64
73112;HTU21D;61301;51.956;5.876;2023-04-25T06:56:35;12.65;55.89
73112;HTU21D;61301;51.956;5.876;2023-04-25T06:59:07;12.74;56.08
73112;HTU21D;61301;51.956;5.876;2023-04-25T07:01:36;12.89;55.95
73112;HTU21D;61301;51.956;5.876;2023-04-25T07:04:06;12.99;56.03
73112;HTU21D;61301;51.956;5.876;2023-04-25T07:06:34;13.03;55.72
73112;HTU21D;61301;51.956;5.876;2023-04-25T07:09:00;13.06;53.36
73112;HTU21D;61301;51.956;5.876;2023-04-25T07:11:26;12.89;55.07
73112;HTU21D;61301;51.956;5.876;2023-04-25T07:13:52;12.89;55.20
73112;HTU21D;61301;51.956;5.876;2023-04-25T07:16:18;13.07;55.52
73112;HTU21D;61301;51.956;5.876;2023-04-25T07:18:45;13.23;55.12
73112;HTU21D;61301;51.956;5.876;2023-04-25T07:21:11;13.20;54.78
73112;HTU21D;61301;51.956;5.876;2023-04-25T07:23:38;12.93;53.19
73112;HTU21D;61301;51.956;5.876;2023-04-25T07:26:10;13.05;54.45
73112;HTU21D;61301;51.956;5.876;2023-04-25T07:28:43;13.23;53.26
73112;HTU21D;61301;51.956;5.876;2023-04-25T07:31:09;13.21;53.56
73112;HTU21D;61301;51.956;5.876;2023-04-25T07:33:36;13.23;53.20
73112;HTU21D;61301;51.956;5.876;2023-04-25T07:36:02;13.20;52.15
73112;HTU21D;61301;51.956;5.876;2023-04-25T07:38:28;13.22;52.79
73112;HTU21D;61301;51.956;5.876;2023-04-25T07:40:54;13.41;52.75
73112;HTU21D;61301;51.956;5.876;2023-04-25T07:43:21;13.53;52.59
73112;HTU21D;61301;51.956;5.876;2023-04-25T07:46:00;13.65;51.28
73112;HTU21D;61301;51.956;5.876;2023-04-25T07:48:29;13.80;52.09
73112;HTU21D;61301;51.956;5.876;2023-04-25T07:50:56;13.88;51.66
73112;HTU21D;61301;51.956;5.876;2023-04-25T07:53:22;13.95;51.24
73112;HTU21D;61301;51.956;5.876;2023-04-25T07:55:53;13.92;49.37
73112;HTU21D;61301;51.956;5.876;2023-04-25T07:58:20;13.81;49.56
73112;HTU21D;61301;51.956;5.876;2023-04-25T08:00:49;13.86;50.09
73112;HTU21D;61301;51.956;5.876;2023-04-25T08:03:38;13.93;49.34
73112;HTU21D;61301;51.956;5.876;2023-04-25T08:06:09;13.99;49.79
73112;HTU21D;61301;51.956;5.876;2023-04-25T08:08:45;14.12;49.86
73112;HTU21D;61301;51.956;5.876;2023-04-25T08:11:16;14.06;48.91
73112;HTU21D;61301;51.956;5.876;2023-04-25T08:13:42;14.08;49.58
73112;HTU21D;61301;51.956;5.876;2023-04-25T08:16:08;14.11;48.60
73112;HTU21D;61301;51.956;5.876;2023-04-25T08:18:36;14.12;44.69
73112;HTU21D;61301;51.956;5.876;2023-04-25T08:21:02;14.20;46.74
73112;HTU21D;61301;51.956;5.876;2023-04-25T08:23:28;14.25;46.40
73112;HTU21D;61301;51.956;5.876;2023-04-25T08:26:03;14.40;47.09
73112;HTU21D;61301;51.956;5.876;2023-04-25T08:28:32;14.51;46.41
73112;HTU21D;61301;51.956;5.876;2023-04-25T08:31:00;14.75;46.61
73112;HTU21D;61301;51.956;5.876;2023-04-25T08:33:33;14.96;44.69
73112;HTU21D;61301;51.956;5.876;2023-04-25T08:36:06;15.07;44.46
73112;HTU21D;61301;51.956;5.876;2023-04-25T08:38:32;15.18;44.31
73112;HTU21D;61301;51.956;5.876;2023-04-25T08:41:00;15.23;41.36
73112;HTU21D;61301;51.956;5.876;2023-04-25T08:43:29;14.94;42.13
73112;HTU21D;61301;51.956;5.876;2023-04-25T08:46:00;14.98;43.90
73112;HTU21D;61301;51.956;5.876;2023-04-25T08:48:36;14.95;44.42
73112;HTU21D;61301;51.956;5.876;2023-04-25T08:51:07;14.99;44.25
73112;HTU21D;61301;51.956;5.876;2023-04-25T08:53:33;14.85;44.62
73112;HTU21D;61301;51.956;5.876;2023-04-25T08:56:02;14.81;44.85
73112;HTU21D;61301;51.956;5.876;2023-04-25T08:58:33;14.79;45.04
73112;HTU21D;61301;51.956;5.876;2023-04-25T09:00:59;14.75;44.93
73112;HTU21D;61301;51.956;5.876;2023-04-25T09:03:28;14.79;45.30
73112;HTU21D;61301;51.956;5.876;2023-04-25T09:05:55;14.70;44.75
73112;HTU21D;61301;51.956;5.876;2023-04-25T09:08:24;14.78;44.56
73112;HTU21D;61301;51.956;5.876;2023-04-25T09:10:50;14.72;44.86
73112;HTU21D;61301;51.956;5.876;2023-04-25T09:13:33;14.65;44.51
73112;HTU21D;61301;51.956;5.876;2023-04-25T09:16:17;14.47;45.11
73112;HTU21D;61301;51.956;5.876;2023-04-25T09:19:21;14.34;45.57
73112;HTU21D;61301;51.956;5.876;2023-04-25T09:21:49;14.24;46.05
73112;HTU21D;61301;51.956;5.876;2023-04-25T09:24:15;14.24;46.25
73112;HTU21D;61301;51.956;5.876;2023-04-25T09:26:41;14.21;45.68
73112;HTU21D;61301;51.956;5.876;2023-04-25T09:29:07;14.18;45.22
73112;HTU21D;61301;51.956;5.876;2023-04-25T09:31:35;14.04;44.49
73112;HTU21D;61301;51.956;5.876;2023-04-25T09:34:04;13.78;42.52
73112;HTU21D;61301;51.956;5.876;2023-04-25T09:36:38;13.52;42.95
73112;HTU21D;61301;51.956;5.876;2023-04-25T09:39:28;13.16;40.69
73112;HTU21D;61301;51.956;5.876;2023-04-25T09:42:09;13.16;42.03
73112;HTU21D;61301;51.956;5.876;2023-04-25T09:44:36;13.36;43.64
73112;HTU21D;61301;51.956;5.876;2023-04-25T09:47:02;13.55;44.35
73112;HTU21D;61301;51.956;5.876;2023-04-25T09:49:30;13.64;43.80
73112;HTU21D;61301;51.956;5.876;2023-04-25T09:52:13;13.91;43.68
73112;HTU21D;61301;51.956;5.876;2023-04-25T09:55:04;14.32;43.99
73112;HTU21D;61301;51.956;5.876;2023-04-25T09:57:33;14.69;43.31
73112;HTU21D;61301;51.956;5.876;2023-04-25T10:00:02;14.96;42.02
73112;HTU21D;61301;51.956;5.876;2023-04-25T10:02:42;15.34;40.36
73112;HTU21D;61301;51.956;5.876;2023-04-25T10:05:10;15.49;38.27
73112;HTU21D;61301;51.956;5.876;2023-04-25T10:07:39;15.45;39.32
73112;HTU21D;61301;51.956;5.876;2023-04-25T10:10:12;15.57;40.01
73112;HTU21D;61301;51.956;5.876;2023-04-25T10:12:39;15.83;40.30
73112;HTU21D;61301;51.956;5.876;2023-04-25T10:15:06;15.99;37.85
73112;HTU21D;61301;51.956;5.876;2023-04-25T10:17:35;16.00;37.01
73112;HTU21D;61301;51.956;5.876;2023-04-25T10:20:04;15.51;38.07
73112;HTU21D;61301;51.956;5.876;2023-04-25T10:22:37;15.45;39.27
73112;HTU21D;61301;51.956;5.876;2023-04-25T10:25:04;15.41;39.88
73112;HTU21D;61301;51.956;5.876;2023-04-25T10:27:31;15.47;40.46
73112;HTU21D;61301;51.956;5.876;2023-04-25T10:30:05;15.46;39.88
73112;HTU21D;61301;51.956;5.876;2023-04-25T10:32:35;15.62;40.17
73112;HTU21D;61301;51.956;5.876;2023-04-25T10:35:28;15.86;40.43
73112;HTU21D;61301;51.956;5.876;2023-04-25T10:38:09;15.56;35.79
73112;HTU21D;61301;51.956;5.876;2023-04-25T10:40:36;15.38;37.93
73112;HTU21D;61301;51.956;5.876;2023-04-25T10:45:59;15.26;39.44
73112;HTU21D;61301;51.956;5.876;2023-04-25T10:48:27;15.16;40.12
73112;HTU21D;61301;51.956;5.876;2023-04-25T10:51:17;15.28;40.48
73112;HTU21D;61301;51.956;5.876;2023-04-25T10:54:08;15.26;40.55
73112;HTU21D;61301;51.956;5.876;2023-04-25T10:56:37;15.33;39.04
73112;HTU21D;61301;51.956;5.876;2023-04-25T10:59:10;15.40;39.86
73112;HTU21D;61301;51.956;5.876;2023-04-25T11:01:38;15.48;40.36
73112;HTU21D;61301;51.956;5.876;2023-04-25T11:04:04;15.54;39.66
73112;HTU21D;61301;51.956;5.876;2023-04-25T11:09:12;15.96;39.52
73112;HTU21D;61301;51.956;5.876;2023-04-25T11:11:41;16.07;39.42
73112;HTU21D;61301;51.956;5.876;2023-04-25T11:14:07;16.17;37.99
73112;HTU21D;61301;51.956;5.876;2023-04-25T11:16:33;16.39;37.79
73112;HTU21D;61301;51.956;5.876;2023-04-25T11:18:59;16.35;35.95
73112;HTU21D;61301;51.956;5.876;2023-04-25T11:21:25;16.55;37.08
73112;HTU21D;61301;51.956;5.876;2023-04-25T11:23:56;17.00;37.60
73112;HTU21D;61301;51.956;5.876;2023-04-25T11:26:22;16.95;35.92
73112;HTU21D;61301;51.956;5.876;2023-04-25T11:28:49;17.07;36.51
73112;HTU21D;61301;51.956;5.876;2023-04-25T11:31:15;16.96;33.57
73112;HTU21D;61301;51.956;5.876;2023-04-25T11:33:41;16.98;35.36
73112;HTU21D;61301;51.956;5.876;2023-04-25T11:36:08;16.94;34.52
73112;HTU21D;61301;51.956;5.876;2023-04-25T11:38:35;17.06;36.16
73112;HTU21D;61301;51.956;5.876;2023-04-25T11:41:01;17.47;35.74
73112;HTU21D;61301;51.956;5.876;2023-04-25T11:43:28;17.58;36.05
73112;HTU21D;61301;51.956;5.876;2023-04-25T11:45:54;17.66;35.44
73112;HTU21D;61301;51.956;5.876;2023-04-25T11:48:20;17.60;34.30
73112;HTU21D;61301;51.956;5.876;2023-04-25T11:50:47;17.69;34.48
73112;HTU21D;61301;51.956;5.876;2023-04-25T11:53:13;17.98;33.81
73112;HTU21D;61301;51.956;5.876;2023-04-25T11:55:39;18.19;34.28
73112;HTU21D;61301;51.956;5.876;2023-04-25T11:58:05;18.26;33.30
73112;HTU21D;61301;51.956;5.876;2023-04-25T12:00:32;18.27;34.34
73112;HTU21D;61301;51.956;5.876;2023-04-25T12:02:58;18.30;34.44
73112;HTU21D;61301;51.956;5.876;2023-04-25T12:05:27;18.18;34.31
73112;HTU21D;61301;51.956;5.876;2023-04-25T12:07:53;17.89;33.35
73112;HTU21D;61301;51.956;5.876;2023-04-25T12:10:19;17.62;34.13
73112;HTU21D;61301;51.956;5.876;2023-04-25T12:12:47;17.10;33.46
73112;HTU21D;61301;51.956;5.876;2023-04-25T12:15:19;16.75;36.87
73112;HTU21D;61301;51.956;5.876;2023-04-25T12:17:49;16.52;37.91
73112;HTU21D;61301;51.956;5.876;2023-04-25T12:20:26;16.24;38.34
73112;HTU21D;61301;51.956;5.876;2023-04-25T12:22:52;15.74;38.81
73112;HTU21D;61301;51.956;5.876;2023-04-25T12:25:38;15.53;39.88
73112;HTU21D;61301;51.956;5.876;2023-04-25T12:28:16;15.31;39.75
73112;HTU21D;61301;51.956;5.876;2023-04-25T12:31:14;15.13;40.80
73112;HTU21D;61301;51.956;5.876;2023-04-25T12:33:41;14.99;40.46
73112;HTU21D;61301;51.956;5.876;2023-04-25T12:36:09;14.95;41.32
73112;HTU21D;61301;51.956;5.876;2023-04-25T12:38:39;15.07;41.83
73112;HTU21D;61301;51.956;5.876;2023-04-25T12:41:06;15.16;41.35
73112;HTU21D;61301;51.956;5.876;2023-04-25T12:43:32;15.28;41.40
73112;HTU21D;61301;51.956;5.876;2023-04-25T12:45:58;15.38;41.31
73112;HTU21D;61301;51.956;5.876;2023-04-25T12:48:24;15.04;39.04
73112;HTU21D;61301;51.956;5.876;2023-04-25T12:50:51;14.91;39.54
73112;HTU21D;61301;51.956;5.876;2023-04-25T12:53:18;14.68;40.07
73112;HTU21D;61301;51.956;5.876;2023-04-25T12:55:45;14.84;41.35
73112;HTU21D;61301;51.956;5.876;2023-04-25T12:58:18;15.12;41.22
73112;HTU21D;61301;51.956;5.876;2023-04-25T13:00:45;15.16;39.43
73112;HTU21D;61301;51.956;5.876;2023-04-25T13:03:11;15.28;39.08
73112;HTU21D;61301;51.956;5.876;2023-04-25T13:05:38;15.54;39.60
73112;HTU21D;61301;51.956;5.876;2023-04-25T13:08:04;15.85;38.71
73112;HTU21D;61301;51.956;5.876;2023-04-25T13:10:31;16.13;39.15
73112;HTU21D;61301;51.956;5.876;2023-04-25T13:12:59;16.32;38.56
73112;HTU21D;61301;51.956;5.876;2023-04-25T13:15:25;16.34;37.12
73112;HTU21D;61301;51.956;5.876;2023-04-25T13:17:51;16.36;36.91
73112;HTU21D;61301;51.956;5.876;2023-04-25T13:20:17;16.39;37.85
73112;HTU21D;61301;51.956;5.876;2023-04-25T13:22:47;16.33;36.77
73112;HTU21D;61301;51.956;5.876;2023-04-25T13:25:13;16.22;37.35
73112;HTU21D;61301;51.956;5.876;2023-04-25T13:27:39;15.97;38.24
73112;HTU21D;61301;51.956;5.876;2023-04-25T13:30:06;15.72;38.33
73112;HTU21D;61301;51.956;5.876;2023-04-25T13:32:34;15.59;38.50
73112;HTU21D;61301;51.956;5.876;2023-04-25T13:35:03;15.73;38.36
73112;HTU21D;61301;51.956;5.876;2023-04-25T13:37:29;16.07;38.62
73112;HTU21D;61301;51.956;5.876;2023-04-25T13:39:56;16.29;37.62
73112;HTU21D;61301;51.956;5.876;2023-04-25T13:42:23;16.41;37.00
73112;HTU21D;61301;51.956;5.876;2023-04-25T13:44:49;16.49;36.87
73112;HTU21D;61301;51.956;5.876;2023-04-25T13:47:15;16.45;36.90
73112;HTU21D;61301;51.956;5.876;2023-04-25T13:49:41;16.43;36.96
73112;HTU21D;61301;51.956;5.876;2023-04-25T13:52:07;16.49;36.60
73112;HTU21D;61301;51.956;5.876;2023-04-25T13:54:33;16.75;35.88
73112;HTU21D;61301;51.956;5.876;2023-04-25T13:56:59;16.92;35.72
73112;HTU21D;61301;51.956;5.876;2023-04-25T13:59:25;16.77;34.23
73112;HTU21D;61301;51.956;5.876;2023-04-25T14:01:51;16.57;35.48
73112;HTU21D;61301;51.956;5.876;2023-04-25T14:04:17;16.61;36.10
73112;HTU21D;61301;51.956;5.876;2023-04-25T14:06:43;16.76;35.78
73112;HTU21D;61301;51.956;5.876;2023-04-25T14:09:10;16.88;32.41
73112;HTU21D;61301;51.956;5.876;2023-04-25T14:11:36;17.01;33.02
73112;HTU21D;61301;51.956;5.876;2023-04-25T14:14:02;17.25;32.58
73112;HTU21D;61301;51.956;5.876;2023-04-25T14:16:29;17.44;32.75
73112;HTU21D;61301;51.956;5.876;2023-04-25T14:18:56;17.31;34.90
73112;HTU21D;61301;51.956;5.876;2023-04-25T14:21:22;16.96;34.98
73112;HTU21D;61301;51.956;5.876;2023-04-25T14:23:48;16.65;35.50
73112;HTU21D;61301;51.956;5.876;2023-04-25T14:26:14;16.47;36.16
73112;HTU21D;61301;51.956;5.876;2023-04-25T14:28:40;16.37;36.81
73112;HTU21D;61301;51.956;5.876;2023-04-25T14:31:06;16.34;36.24
73112;HTU21D;61301;51.956;5.876;2023-04-25T14:33:32;16.33;35.73
73112;HTU21D;61301;51.956;5.876;2023-04-25T14:35:58;16.42;35.35
73112;HTU21D;61301;51.956;5.876;2023-04-25T14:38:24;16.73;35.58
73112;HTU21D;61301;51.956;5.876;2023-04-25T14:40:54;17.09;35.47
73112;HTU21D;61301;51.956;5.876;2023-04-25T14:43:20;17.38;34.80
73112;HTU21D;61301;51.956;5.876;2023-04-25T14:45:46;17.52;33.06
73112;HTU21D;61301;51.956;5.876;2023-04-25T14:48:12;17.65;33.19
73112;HTU21D;61301;51.956;5.876;2023-04-25T14:50:38;17.43;31.77
73112;HTU21D;61301;51.956;5.876;2023-04-25T14:53:04;17.18;30.11
73112;HTU21D;61301;51.956;5.876;2023-04-25T14:55:30;17.23;31.37
73112;HTU21D;61301;51.956;5.876;2023-04-25T14:57:56;17.21;32.45
73112;HTU21D;61301;51.956;5.876;2023-04-25T15:00:22;17.39;33.35
73112;HTU21D;61301;51.956;5.876;2023-04-25T15:02:49;17.40;31.45
73112;HTU21D;61301;51.956;5.876;2023-04-25T15:05:15;17.37;32.37
73112;HTU21D;61301;51.956;5.876;2023-04-25T15:07:41;17.19;32.32
73112;HTU21D;61301;51.956;5.876;2023-04-25T15:10:08;17.23;32.76
73112;HTU21D;61301;51.956;5.876;2023-04-25T15:12:39;17.29;33.41
73112;HTU21D;61301;51.956;5.876;2023-04-25T15:15:07;17.34;33.70
73112;HTU21D;61301;51.956;5.876;2023-04-25T15:17:43;17.44;32.51
73112;HTU21D;61301;51.956;5.876;2023-04-25T15:20:10;17.44;32.04
73112;HTU21D;61301;51.956;5.876;2023-04-25T15:22:38;17.31;32.58
73112;HTU21D;61301;51.956;5.876;2023-04-25T15:25:04;17.21;33.55
73112;HTU21D;61301;51.956;5.876;2023-04-25T15:27:32;17.15;33.82
73112;HTU21D;61301;51.956;5.876;2023-04-25T15:29:59;17.04;34.58
73112;HTU21D;61301;51.956;5.876;2023-04-25T15:32:25;16.81;33.78
73112;HTU21D;61301;51.956;5.876;2023-04-25T15:34:51;16.58;35.34
73112;HTU21D;61301;51.956;5.876;2023-04-25T15:37:17;16.44;35.66